Airfield :
LOGIN :

Register | Disclaimer

   EN    FR    IT 

 










Legend :    VFR   Marginal VFR   IFR   Intensive IFR   Very Intensive IFR
Visi :
Ceiling :
>= 8 km
>= 3000ft
5 to 8 km
1000 to 3000 ft
1500m to 5 km
500 to 1000 ft
800 to 1500m
200 to 500 ft
< 800m
< 200 ft
Symbols :   Thunderstorms  Fog  Heavy snow  Heavy precipitations  Wind > 20 kt
SIGMETs :     Misc.  Thunderstorms  Icing  Turbulence  Mountain Waves  Volcanic Ashes







- Airport Elevation : 529 ft
- IATA code : CHR
- Download approach charts


LFLX - Chateauroux

CURRENT METAR :
  • 250630Z AUTO VRB03KT CAVOK 18/15 Q1016 NOSIG

EXPIRED METARs :
  • 250600Z AUTO 00000KT CAVOK 17/15 Q1015 NOSIG
  • 250530Z AUTO 02003KT CAVOK 14/14 Q1016 NOSIG
  • 250500Z AUTO 02003KT CAVOK 12/12 Q1015 TEMPO 3000 BR
  • 250430Z AUTO 00000KT 9999 FEW001 12/11 Q1015 TEMPO 3000 BR
  • 250400Z AUTO 00000KT CAVOK 13/12 Q1015 TEMPO 3000 BR

TAF TAF LFLX
Valid from the 25 at 06:00 until the 26 at 12:00 UTC


250500Z 2506/2612 VRB02KT CAVOK
PROB30
TEMPO 2515/2519 VRB15G30KT 2000 TSGR SCT040CB
PROB30
TEMPO 2519/2523 TSRA SCT090CB
No reported NOTAMs for that airfield.
1 SIGMET reported for the Bordeaux FIR (LFBB) :
 
Embedded thunderstorms
LFBB SIGMET 2 VALID 250600/250800 LFPW
LFBB BORDEAUX FIR/UIR EMBD TS OBS WI N4415 W00145 - N4545 W00145 - N4545 W00045 - N4400 W00100 - N4415 W00145 TOP FL380 MOV NNE 20KT NC=



MET'MAP, your aeronautical weather chart ! - Copyright ORBIFLY December 2007 - Disclaimer

ORBIFLY MET'MAP TEAM :

Programming & Development : Alexandra Zaïnal
Concept & Development : Baudouin d'Aumeries
Co-Development & Prog : Marc-Olivier Méhu
Technical & hardware support : Manuel Goepfert

Contact : metmap@orbifly.com




SOURCES & CREDITS :

   NOAA